Terminal Aerodrome Forecast
Issued by NWS

Home | Current Version | Previous Version | Graphics & Text | Print | Product List | Glossary On
Versions: 1 2 3 4 5 6 7 8 9 10 11 12 13 14 15 16 17 18 19 20
068
FTUS43 KABR 262303 AAC
TAFATY
TAF AMD
KATY 262303Z 2623/2718 20010KT P6SM FEW045 OVC200
     FM270000 12004KT P6SM BKN200
     FM270900 00000KT P6SM BKN060
     FM271300 VRB03KT P6SM BKN025
     FM271500 02004KT P6SM -SHRA BKN020
     FM271700 03006KT P6SM -SHRA BKN035=

USA.gov is the U.S. government's official web portal to all federal, state and local government web resources and services.